Time;durP1;ratioP1;P1;durP2;ratioP2;P2;SDS_P1;SDS_P2;PMS_P1;PMS_P2;Temp;Humidity;BMP_temperature;BMP_pressure;BME280_temperature;BME280_humidity;BME280_pressure;Samples;Min_cycle;Max_cycle;Signal;HPM_P1;HPM_P2
2023/01/11 00:00:26;;;;;;;14.23;9.38;;;;;;;;;;4964345;28;20113;-63
2023/01/11 00:02:56;;;;;;;15.48;10.70;;;;;;;;;;4972622;28;20061;-63
2023/01/11 00:05:22;;;;;;;14.05;10.20;;;;;;;;;;4988922;28;20050;-62
2023/01/11 00:07:48;;;;;;;11.80;8.82;;;;;;;;;;4959066;28;20445;-63
2023/01/11 00:10:14;;;;;;;14.65;10.90;;;;;;;;;;4992683;28;20046;-63
2023/01/11 00:12:40;;;;;;;13.80;7.97;;;;;;;;;;4991680;28;20038;-64
2023/01/11 00:15:07;;;;;;;12.63;10.05;;;;;;;;;;4989874;28;20043;-62
2023/01/11 00:17:33;;;;;;;11.80;8.30;;;;;;;;;;4974772;28;20046;-62
2023/01/11 00:19:59;;;;;;;13.00;8.50;;;;;;;;;;4991556;28;20120;-63
2023/01/11 00:22:26;;;;;;;14.95;9.75;;;;;;;;;;4975024;28;20053;-62
2023/01/11 00:24:52;;;;;;;13.88;9.70;;;;;;;;;;4991399;28;20058;-63
2023/01/11 00:27:18;;;;;;;12.43;8.98;;;;;;;;;;4992096;28;20055;-63
2023/01/11 00:29:44;;;;;;;10.88;8.20;;;;;;;;;;4991535;28;20058;-63
2023/01/11 00:32:10;;;;;;;10.10;6.85;;;;;;;;;;4992100;28;20120;-63
2023/01/11 00:34:36;;;;;;;12.98;9.10;;;;;;;;;;4988796;28;20046;-62
2023/01/11 00:37:03;;;;;;;13.77;9.77;;;;;;;;;;4992073;28;20073;-63
2023/01/11 00:39:29;;;;;;;8.85;6.65;;;;;;;;;;4974551;28;20132;-63
2023/01/11 00:48:10;;;;;;;10.80;7.72;;;;;;;;;;4991558;28;20065;-63
2023/01/11 00:50:11;;;;;;;12.82;8.93;;;;;;;;;;4984564;28;20082;-63
2023/01/11 00:52:37;;;;;;;12.00;8.27;;;;;;;;;;4993274;28;20066;-63
2023/01/11 00:55:03;;;;;;;13.40;10.02;;;;;;;;;;4994557;28;20070;-64
2023/01/11 00:57:29;;;;;;;13.50;9.35;;;;;;;;;;4977862;28;20526;-64
2023/01/11 00:59:55;;;;;;;9.63;7.65;;;;;;;;;;4989660;28;20144;-64
2023/01/11 01:02:21;;;;;;;13.48;9.23;;;;;;;;;;4994987;28;20518;-64
2023/01/11 01:04:47;;;;;;;13.93;9.68;;;;;;;;;;4984341;28;20091;-64
2023/01/11 01:07:13;;;;;;;15.77;10.77;;;;;;;;;;4979955;28;20072;-64
2023/01/11 01:09:39;;;;;;;11.02;6.93;;;;;;;;;;4995029;28;20046;-65
2023/01/11 01:12:07;;;;;;;13.35;8.20;;;;;;;;;;4978062;28;20054;-64
2023/01/11 01:14:34;;;;;;;16.08;10.32;;;;;;;;;;4992715;28;20054;-64
2023/01/11 01:17:07;;;;;;;12.38;8.35;;;;;;;;;;4977251;28;20441;-64
2023/01/11 01:19:35;;;;;;;16.92;10.75;;;;;;;;;;4994481;28;20048;-64
2023/01/11 01:22:01;;;;;;;12.68;9.05;;;;;;;;;;4993104;28;20042;-65
2023/01/11 01:24:27;;;;;;;15.15;9.98;;;;;;;;;;4973634;28;20463;-65
2023/01/11 01:26:54;;;;;;;13.90;9.00;;;;;;;;;;4976560;28;20108;-64
2023/01/11 01:29:20;;;;;;;10.60;7.43;;;;;;;;;;4993943;28;20042;-65
2023/01/11 01:31:46;;;;;;;15.32;10.32;;;;;;;;;;4993586;28;20077;-65
2023/01/11 01:34:12;;;;;;;13.68;9.35;;;;;;;;;;4993988;28;20046;-65
2023/01/11 01:36:38;;;;;;;13.43;8.25;;;;;;;;;;4977273;28;20101;-65
2023/01/11 01:39:05;;;;;;;15.77;9.15;;;;;;;;;;4977561;28;20053;-66
2023/01/11 01:41:31;;;;;;;13.50;8.73;;;;;;;;;;4977396;28;20050;-66
2023/01/11 01:43:59;;;;;;;11.93;8.43;;;;;;;;;;4974623;28;20519;-66
2023/01/11 01:46:29;;;;;;;12.88;8.65;;;;;;;;;;4993900;28;20054;-66
2023/01/11 01:48:57;;;;;;;15.20;9.60;;;;;;;;;;4994285;28;20406;-66
2023/01/11 01:51:27;;;;;;;10.88;7.95;;;;;;;;;;4976241;28;20046;-66
2023/01/11 01:53:56;;;;;;;12.73;8.90;;;;;;;;;;4969386;28;20141;-66
2023/01/11 01:56:25;;;;;;;11.38;7.88;;;;;;;;;;4976852;28;20054;-65
2023/01/11 01:58:55;;;;;;;11.27;6.95;;;;;;;;;;4993344;28;20038;-64
2023/01/11 02:04:09;;;;;;;15.45;9.55;;;;;;;;;;4992388;28;20403;-64
2023/01/11 02:06:36;;;;;;;11.48;6.95;;;;;;;;;;4992214;28;20133;-65
2023/01/11 02:09:04;;;;;;;13.65;9.35;;;;;;;;;;4993754;28;20441;-65
2023/01/11 02:11:30;;;;;;;14.00;9.63;;;;;;;;;;4993791;28;20050;-65
2023/01/11 02:13:59;;;;;;;14.30;9.32;;;;;;;;;;4990687;28;20074;-66
2023/01/11 02:16:25;;;;;;;12.40;9.02;;;;;;;;;;4990169;28;20126;-66
2023/01/11 02:18:51;;;;;;;14.18;9.73;;;;;;;;;;4984606;28;20046;-66
2023/01/11 02:21:21;;;;;;;14.25;8.40;;;;;;;;;;5019576;23;20054;-65
2023/01/11 02:23:53;;;;;;;15.15;9.38;;;;;;;;;;5013342;28;20095;-65
2023/01/11 02:26:25;;;;;;;10.63;7.78;;;;;;;;;;4995652;28;20057;-66
2023/01/11 02:28:59;;;;;;;9.55;6.53;;;;;;;;;;5013070;28;20064;-66
2023/01/11 02:31:25;;;;;;;10.55;7.50;;;;;;;;;;5011260;28;20441;-66
2023/01/11 02:34:11;;;;;;;9.07;6.70;;;;;;;;;;5011655;28;20050;-66
2023/01/11 02:36:43;;;;;;;8.93;6.22;;;;;;;;;;4978261;28;20054;-67
2023/01/11 02:39:18;;;;;;;5.95;4.05;;;;;;;;;;4993387;28;20042;-66
2023/01/11 02:45:00;;;;;;;9.75;5.38;;;;;;;;;;5013223;28;20383;-66
2023/01/11 02:47:48;;;;;;;8.38;5.90;;;10.50;99.90;;;;;;5010318;28;20038;-66
2023/01/11 02:50:14;;;;;;;8.10;5.53;;;;;;;;;;5010649;28;20092;-67
2023/01/11 02:52:54;;;;;;;9.10;5.28;;;;;;;;;;5011525;28;20050;-66
2023/01/11 02:55:24;;;;;;;8.18;5.30;;;;;;;;;;5027669;28;20045;-66
2023/01/11 02:57:52;;;;;;;10.30;6.73;;;;;;;;;;4993886;28;20091;-67
2023/01/11 03:00:18;;;;;;;9.35;5.97;;;;;;;;;;5011218;28;20486;-67
2023/01/11 03:02:45;;;;;;;7.90;5.75;;;;;;;;;;5010955;28;20041;-67
2023/01/11 03:05:12;;;;;;;11.02;5.88;;;;;;;;;;5005659;28;20495;-66
2023/01/11 03:08:00;;;;;;;9.43;5.88;;;;;;;;;;4995268;28;20054;-65
2023/01/11 03:10:26;;;;;;;8.52;4.95;;;;;;;;;;5010087;28;20061;-66
2023/01/11 03:12:59;;;;;;;6.82;5.18;;;;;;;;;;5011616;28;20510;-67
2023/01/11 03:15:41;;;;;;;7.40;4.00;;;;;;;;;;5022247;28;20041;-66
2023/01/11 03:18:28;;;;;;;5.28;3.25;;;;;;;;;;5005743;28;20042;-66
2023/01/11 03:21:21;;;;;;;3.75;2.83;;;10.50;99.90;;;;;;4993887;28;20057;-66
2023/01/11 03:23:56;;;;;;;2.53;1.92;;;;;;;;;;5010671;28;20049;-65
2023/01/11 03:26:41;;;;;;;5.10;2.10;;;;;;;;;;5011131;28;20054;-66
2023/01/11 03:29:10;;;;;;;7.50;2.47;;;;;;;;;;5012114;28;20050;-65
2023/01/11 03:31:49;;;;;;;5.75;3.75;;;;;;;;;;5001175;28;20383;-66
2023/01/11 03:34:15;;;;;;;10.63;4.85;;;;;;;;;;4994315;28;20068;-65
2023/01/11 03:36:43;;;;;;;5.13;2.90;;;;;;;;;;5027291;28;20538;-66
2023/01/11 03:39:29;;;;;;;5.22;3.65;;;;;;;;;;4993131;28;20453;-65
2023/01/11 03:41:57;;;;;;;17.17;6.63;;;;;;;;;;5005869;28;20107;-65
2023/01/11 03:44:25;;;;;;;10.68;4.47;;;;;;;;;;5010494;28;20056;-65
2023/01/11 03:46:57;;;;;;;25.95;5.80;;;;;;;;;;4994371;28;20498;-65
2023/01/11 03:49:30;;;;;;;16.60;5.45;;;;;;;;;;4994311;28;20049;-65
2023/01/11 03:51:57;;;;;;;13.27;5.45;;;;;;;;;;5009142;28;21691;-65
2023/01/11 03:54:24;;;;;;;15.15;4.55;;;;;;;;;;5010864;28;20045;-65
2023/01/11 03:57:04;;;;;;;12.60;3.92;;;;;;;;;;5011670;28;20395;-64
2023/01/11 03:59:31;;;;;;;14.45;5.40;;;;;;;;;;5009697;28;20049;-65
2023/01/11 04:01:57;;;;;;;19.83;6.40;;;;;;;;;;5018802;28;20450;-65
2023/01/11 04:04:24;;;;;;;20.90;5.53;;;;;;;;;;5012025;28;20134;-64
2023/01/11 04:06:50;;;;;;;22.05;4.63;;;;;;;;;;5010410;28;20477;-66
2023/01/11 04:09:16;;;;;;;20.77;4.55;;;;;;;;;;5011412;28;20049;-64
2023/01/11 04:11:42;;;;;;;28.52;6.60;;;;;;;;;;5010161;28;20046;-65
2023/01/11 04:14:08;;;;;;;19.17;6.10;;;;;;;;;;5009969;28;20401;-65
2023/01/11 04:16:34;;;;;;;21.08;3.50;;;;;;;;;;5019052;28;20133;-64
2023/01/11 04:19:01;;;;;;;20.38;4.28;;;;;;;;;;5011637;28;20564;-64
2023/01/11 04:21:28;;;;;;;18.88;4.30;;;;;;;;;;5009273;28;20070;-64
2023/01/11 04:23:54;;;;;;;25.15;4.78;;;;;;;;;;5014954;28;20093;-65
2023/01/11 04:26:20;;;;;;;25.50;4.55;;;;;;;;;;5012288;28;20050;-65
2023/01/11 04:28:46;;;;;;;21.85;4.05;;;;;;;;;;5030131;28;20099;-65
2023/01/11 04:31:12;;;;;;;34.00;6.10;;;;;;;;;;5013742;28;20077;-65
2023/01/11 04:33:38;;;;;;;27.20;4.53;;;;;;;;;;5014356;28;20050;-65
2023/01/11 04:36:09;;;;;;;27.10;5.53;;;;;;;;;;5007436;28;20042;-64
2023/01/11 04:38:34;;;;;;;;;;;10.60;99.90;;;;;;4997017;28;20414;-64
2023/01/11 04:43:46;;;;;;;36.92;4.68;;;;;;;;;;5008319;28;20489;-64
2023/01/11 04:46:12;;;;;;;32.17;4.95;;;;;;;;;;5013745;28;20129;-64
2023/01/11 04:48:38;;;;;;;29.80;5.15;;;;;;;;;;5015434;28;20053;-64
2023/01/11 04:51:05;;;;;;;32.03;3.90;;;;;;;;;;5012909;28;20042;-64
2023/01/11 04:53:31;;;;;;;36.38;4.53;;;;;;;;;;5011308;28;20516;-64
2023/01/11 04:56:01;;;;;;;34.28;5.95;;;;;;;;;;5014749;28;20046;-64
2023/01/11 04:58:27;;;;;;;36.38;5.32;;;;;;;;;;5012872;28;20042;-64
2023/01/11 05:00:53;;;;;;;23.15;3.45;;;;;;;;;;5029941;28;20050;-64
2023/01/11 05:03:20;;;;;;;38.60;3.58;;;;;;;;;;5011081;28;20193;-64
2023/01/11 05:05:54;;;;;;;27.95;4.85;;;;;;;;;;5013758;28;20053;-64
2023/01/11 05:08:20;;;;;;;27.48;4.53;;;;;;;;;;5012728;28;20839;-64
2023/01/11 05:10:51;;;;;;;19.80;3.88;;;;;;;;;;4995974;28;20064;-64
2023/01/11 05:13:17;;;;;;;24.20;3.53;;;;;;;;;;5012188;28;20072;-64
2023/01/11 05:15:43;;;;;;;27.52;3.70;;;;;;;;;;4996705;28;20073;-63
2023/01/11 05:18:09;;;;;;;37.53;4.47;;;;;;;;;;5013383;28;20141;-64
2023/01/11 05:20:35;;;;;;;35.08;4.80;;;;;;;;;;5012941;28;20060;-64
2023/01/11 05:23:01;;;;;;;30.35;5.28;;;;;;;;;;5009098;28;20081;-64
2023/01/11 05:25:27;;;;;;;37.22;4.93;;;;;;;;;;4996701;28;20072;-64
2023/01/11 05:27:53;;;;;;;25.83;3.58;;;;;;;;;;5013818;28;20049;-64
2023/01/11 05:30:19;;;;;;;32.53;4.55;;;;;;;;;;5008155;28;20085;-64
2023/01/11 05:32:45;;;;;;;29.17;4.72;;;;;;;;;;4995103;28;20453;-64
2023/01/11 05:35:11;;;;;;;25.55;4.85;;;;;;;;;;5012772;28;20049;-64
2023/01/11 05:37:37;;;;;;;26.73;5.28;;;;;;;;;;5012986;28;20057;-64
2023/01/11 05:40:06;;;;;;;27.77;3.63;;;;;;;;;;5013308;28;20045;-63
2023/01/11 05:42:33;;;;;;;17.70;3.00;;;;;;;;;;5012388;28;20508;-64
2023/01/11 05:47:59;;;;;;;27.55;3.70;;;;;;;;;;5035517;23;20341;-64
2023/01/11 05:50:25;;;;;;;28.50;5.55;;;;;;;;;;5014737;28;20050;-64
2023/01/11 05:52:51;;;;;;;20.20;2.80;;;;;;;;;;5024898;28;20045;-64
2023/01/11 05:55:17;;;;;;;27.17;3.78;;;;;;;;;;4996540;28;20042;-64
2023/01/11 05:57:44;;;;;;;23.65;4.10;;;;;;;;;;5065472;23;22322;-64
2023/01/11 06:00:11;;;;;;;23.23;3.28;;;;;;;;;;5033290;23;20437;-65
2023/01/11 06:02:37;;;;;;;25.92;4.55;;;;;;;;;;5016748;22;20064;-64
2023/01/11 06:05:04;;;;;;;30.33;3.38;;;;;;;;;;4956141;28;20058;-64
2023/01/11 06:07:30;;;;;;;31.00;4.97;;;;;;;;;;4956847;28;20081;-64
2023/01/11 06:09:56;;;;;;;20.80;3.17;;;;;;;;;;4956800;28;20054;-64
2023/01/11 06:12:22;;;;;;;30.40;3.20;;;;;;;;;;4956873;28;20047;-64
2023/01/11 06:14:48;;;;;;;28.23;4.35;;;;;;;;;;4943278;28;20054;-64
2023/01/11 06:17:14;;;;;;;23.15;3.38;;;;;;;;;;4974104;28;20522;-64
2023/01/11 06:19:40;;;;;;;27.08;4.18;;;;;;;;;;4973784;28;20058;-65
2023/01/11 06:22:06;;;;;;;27.40;4.22;;;;;;;;;;4974189;28;20054;-64
2023/01/11 06:24:32;;;;;;;31.35;3.70;;;;;;;;;;4956993;28;20049;-64
2023/01/11 06:26:58;;;;;;;19.23;3.55;;;;;;;;;;4956478;28;20426;-64
2023/01/11 06:29:24;;;;;;;29.05;4.50;;;;;;;;;;4974184;28;20054;-64
2023/01/11 06:31:50;;;;;;;32.17;3.90;;;;;;;;;;4973854;28;20042;-65
2023/01/11 06:34:16;;;;;;;22.77;3.13;;;;;;;;;;4971892;28;20415;-64
2023/01/11 06:36:42;;;;;;;27.55;4.38;;;;;;;;;;4955460;28;20047;-64
2023/01/11 06:39:09;;;;;;;23.73;3.15;;;;;;;;;;4973867;28;20051;-64
2023/01/11 06:41:35;;;;;;;22.17;3.55;;;;;;;;;;4940560;28;20502;-64
2023/01/11 06:44:01;;;;;;;31.00;4.20;;;;;;;;;;4955947;28;20050;-64
2023/01/11 06:46:27;;;;;;;25.90;3.33;;;;;;;;;;4972820;28;20050;-64
2023/01/11 06:48:53;;;;;;;20.05;3.55;;;;;;;;;;4939708;28;20057;-64
2023/01/11 06:51:19;;;;;;;29.23;4.22;;;;;;;;;;4954961;28;20558;-65
2023/01/11 06:53:45;;;;;;;22.92;3.00;;;;;;;;;;4956394;28;20047;-64
2023/01/11 06:56:12;;;;;;;22.35;3.00;;;;;;;;;;4956503;28;20055;-64
2023/01/11 06:58:39;;;;;;;21.45;3.03;;;;;;;;;;4972843;28;20055;-64
2023/01/11 07:01:05;;;;;;;28.60;3.25;;;;;;;;;;4972211;28;20047;-64
2023/01/11 07:03:31;;;;;;;14.63;3.15;;;;;;;;;;4955297;28;20058;-64
2023/01/11 07:05:57;;;;;;;26.38;3.15;;;;;;;;;;4955918;28;20499;-65
2023/01/11 07:08:24;;;;;;;27.00;3.72;;;;;;;;;;4973591;28;20487;-65
2023/01/11 07:10:50;;;;;;;14.93;2.83;;;;;;;;;;4955667;28;20126;-65
2023/01/11 07:13:16;;;;;;;16.15;2.13;;;;;;;;;;4972088;28;20047;-65
2023/01/11 07:15:43;;;;;;;20.02;3.10;;;;;;;;;;4956007;28;20398;-65
2023/01/11 07:18:13;;;;;;;11.80;2.70;;;;;;;;;;4953767;28;20410;-64
2023/01/11 07:20:39;;;;;;;10.25;1.90;;;;;;;;;;4972833;28;20062;-65
2023/01/11 07:23:09;;;;;;;14.82;2.40;;;;;;;;;;4956245;28;20454;-64
2023/01/11 07:25:36;;;;;;;14.25;2.05;;;;;;;;;;4973524;28;20051;-64
2023/01/11 07:28:04;;;;;;;18.05;2.30;;;;;;;;;;4973258;28;20491;-63
2023/01/11 07:30:31;;;;;;;14.90;3.17;;;;;;;;;;4970716;28;20050;-64
2023/01/11 07:32:57;;;;;;;12.32;1.92;;;;;;;;;;4955171;28;20043;-64
2023/01/11 07:35:23;;;;;;;14.48;2.50;;;;;;;;;;4970243;28;20043;-64
2023/01/11 07:37:50;;;;;;;11.30;2.40;;;;;;;;;;4972662;28;20053;-63
2023/01/11 07:40:16;;;;;;;11.20;1.45;;;;;;;;;;4971566;28;20045;-63
2023/01/11 07:45:34;;;;;;;17.55;2.40;;;;;;;;;;4953693;28;20046;-63
2023/01/11 07:48:01;;;;;;;13.35;1.63;;;;;;;;;;4973077;28;20503;-63
2023/01/11 07:50:27;;;;;;;10.80;2.05;;;;;;;;;;4970545;28;20124;-63
2023/01/11 07:52:53;;;;;;;13.60;1.70;;;;;;;;;;4972821;28;20566;-63
2023/01/11 07:55:19;;;;;;;13.25;2.38;;;;;;;;;;4972659;28;20047;-63
2023/01/11 07:57:45;;;;;;;11.80;1.60;;;;;;;;;;4972755;28;20150;-63
2023/01/11 08:00:11;;;;;;;10.55;2.65;;;;;;;;;;4958891;28;20117;-63
2023/01/11 08:02:37;;;;;;;17.30;2.30;;;;;;;;;;4976816;28;20050;-64
2023/01/11 08:05:04;;;;;;;16.17;2.85;;;;;;;;;;4943620;28;20142;-63
2023/01/11 08:07:30;;;;;;;13.20;2.65;;;;;;;;;;4977048;28;20533;-63
2023/01/11 08:09:56;;;;;;;12.52;1.80;;;;;;;;;;4976507;28;20069;-64
2023/01/11 08:15:09;;;;;;;14.80;1.85;;;;;;;;;;4976568;28;20145;-63
2023/01/11 08:17:35;;;;;;;11.05;1.70;;;;;;;;;;4959488;28;20067;-63
2023/01/11 08:20:01;;;;;;;12.43;1.77;;;;;;;;;;4975552;28;20121;-63
2023/01/11 08:22:27;;;;;;;14.65;2.80;;;;;;;;;;4959332;28;20438;-64
2023/01/11 08:24:53;;;;;;;9.00;1.60;;;;;;;;;;4959434;28;20432;-63
2023/01/11 08:27:19;;;;;;;11.13;2.08;;;;;;;;;;4976180;28;20050;-63
2023/01/11 08:29:45;;;;;;;15.13;1.50;;;;;;;;;;4976222;28;20102;-64
2023/01/11 08:32:12;;;;;;;12.45;1.40;;;;;;;;;;4958927;28;20055;-63
2023/01/11 08:34:38;;;;;;;11.40;2.25;;;;;;;;;;4973324;28;20074;-64
2023/01/11 08:37:04;;;;;;;10.63;1.95;;;;;;;;;;4973289;28;20046;-63
2023/01/11 08:39:30;;;;;;;10.32;1.45;;;;;;;;;;4976387;28;20108;-64
2023/01/11 08:42:01;;;;;;;12.80;1.77;;;;;;;;;;4975980;28;20039;-63
2023/01/11 08:44:27;;;;;;;13.13;1.70;;;;;;;;;;4958812;28;20093;-63
2023/01/11 08:46:54;;;;;;;20.45;2.60;;;;;;;;;;4958854;28;20047;-65
2023/01/11 08:49:20;;;;;;;21.77;3.90;;;;;;;;;;4969770;28;20057;-64
2023/01/11 08:51:46;;;;;;;8.65;1.80;;;;;;;;;;4975549;28;20407;-64
2023/01/11 08:54:14;;;;;;;12.60;1.98;;;;;;;;;;4974697;28;20047;-63
2023/01/11 08:56:40;;;;;;;15.93;2.03;;;;;;;;;;4975882;28;20042;-64
2023/01/11 08:59:06;;;;;;;14.75;1.88;;;;;;;;;;4975735;28;20043;-64
2023/01/11 09:01:32;;;;;;;8.65;2.00;;;;;;;;;;4958607;28;20054;-64
2023/01/11 09:06:48;;;;;;;9.80;1.63;;;;;;;;;;5009496;23;20093;-64
2023/01/11 09:09:14;;;;;;;14.82;2.13;;;;;;;;;;4988908;28;20057;-63
2023/01/11 09:11:56;;;;;;;12.75;2.42;;;;;;;;;;4974981;28;20576;-64
2023/01/11 09:14:23;;;;;;;13.38;2.55;;;;;;;;;;4974907;28;20094;-63
2023/01/11 09:16:49;;;;;;;12.65;2.30;;;;;;;;;;4974305;28;20047;-63
2023/01/11 09:19:15;;;;;;;14.43;3.42;;;;;;;;;;4973654;28;20591;-63
2023/01/11 09:21:43;;;;;;;27.63;4.30;;;;;;;;;;4973114;28;20561;-63
2023/01/11 09:24:09;;;;;;;14.52;2.13;;;;;;;;;;4990986;23;20062;-63
2023/01/11 09:26:36;;;;;;;20.08;3.17;;;;;;;;;;4953967;28;20051;-63
2023/01/11 09:29:03;;;;;;;26.15;7.65;;;;;;;;;;4953821;28;20047;-63
2023/01/11 09:31:29;;;;;;;17.17;3.90;;;;;;;;;;4962059;28;20051;-63
2023/01/11 09:33:55;;;;;;;15.65;2.40;;;;;;;;;;4951909;28;20051;-63
2023/01/11 09:36:22;;;;;;;24.80;2.78;;;;;;;;;;4955488;28;20058;-63
2023/01/11 09:38:51;;;;;;;24.67;2.60;;;;;;;;;;4954434;29;20090;-63
2023/01/11 09:41:24;;;;;;;17.42;3.38;;;;;;;;;;4955902;28;20412;-63
2023/01/11 09:43:56;;;;;;;22.70;2.70;;;;;;;;;;4953748;28;20476;-63
2023/01/11 09:46:23;;;;;;;20.10;2.60;;;;;;;;;;4946905;28;20130;-63
2023/01/11 09:48:54;;;;;;;17.02;3.83;;;;;;;;;;4951095;28;20050;-63
2023/01/11 09:51:21;;;;;;;14.52;2.75;;;;;;;;;;4952207;28;20047;-63
2023/01/11 09:53:53;;;;;;;23.02;3.33;;;;;;;;;;4954065;28;20420;-63
2023/01/11 09:56:23;;;;;;;14.35;2.60;;;;;;;;;;4955110;29;20047;-63
2023/01/11 09:58:49;;;;;;;18.00;3.08;;;;;;;;;;4955489;29;20058;-63
2023/01/11 10:01:23;;;;;;;19.23;2.50;;;;;;;;;;4954554;29;20055;-63
2023/01/11 10:04:08;;;;;;;12.45;2.08;;;;;;;;;;4953419;28;20051;-63
2023/01/11 10:06:50;;;;;;;16.17;3.08;;;;;;;;;;4953348;28;20088;-63
2023/01/11 10:09:24;;;;;;;23.98;3.47;;;;;;;;;;4938528;29;20050;-63
2023/01/11 10:11:51;;;;;;;25.35;4.40;;;;;;;;;;4955589;29;20090;-63
2023/01/11 10:14:30;;;;;;;14.43;2.97;;;;;;;;;;4953970;28;20055;-63
2023/01/11 10:17:11;;;;;;;18.05;2.92;;;;;;;;;;4955164;29;20094;-63
2023/01/11 10:19:40;;;;;;;20.77;3.03;;;;;;;;;;4944018;29;20058;-63
2023/01/11 10:22:11;;;;;;;13.50;3.50;;;;;;;;;;4954765;29;20055;-63
2023/01/11 10:24:47;;;;;;;17.17;4.07;;;;;;;;;;4954780;29;20385;-63
2023/01/11 10:27:28;;;;;;;24.27;2.92;;;;;;;;;;4955242;29;20092;-63
2023/01/11 10:35:40;;;;;;;22.50;2.85;;;;;;;;;;4952606;29;20061;-64
2023/01/11 10:41:13;;;;;;;12.23;2.83;;;;;;;;;;4953607;29;20051;-64
2023/01/11 10:43:41;;;;;;;20.25;3.08;;;;;;;;;;4941963;28;20160;-65
2023/01/11 10:46:13;;;;;;;15.00;3.72;;;;;;;;;;4940587;29;20047;-64
2023/01/11 10:48:41;;;;;;;15.95;3.85;;;;;;;;;;4940465;29;20047;-66
2023/01/11 10:51:30;;;;;;;10.13;2.08;;;;;;;;;;4944516;29;20050;-64
2023/01/11 10:54:12;;;;;;;16.65;2.90;;;;;;;;;;4942413;29;20043;-64
2023/01/11 10:57:06;;;;;;;19.98;3.95;;;9.90;99.90;;;;;;4953453;29;20496;-64
2023/01/11 10:59:49;;;;;;;19.65;5.43;;;;;;;;;;4940468;29;20129;-64
2023/01/11 11:02:15;;;;;;;19.35;4.53;;;;;;;;;;4934453;28;20050;-65
2023/01/11 11:04:53;;;;;;;21.77;4.25;;;;;;;;;;4950184;28;20039;-65
2023/01/11 11:07:22;;;;;;;23.27;3.95;;;;;;;;;;4955011;28;20134;-64
2023/01/11 11:09:57;;;;;;;18.77;3.20;;;;;;;;;;4953935;29;20499;-65
2023/01/11 11:12:23;;;;;;;19.05;2.55;;;;;;;;;;4944052;28;20468;-65
2023/01/11 11:14:49;;;;;;;16.17;2.92;;;;;;;;;;4952510;29;20448;-65
2023/01/11 11:17:15;;;;;;;12.98;2.75;;;;;;;;;;4952499;28;20138;-65
2023/01/11 11:19:41;;;;;;;32.20;3.20;;;;;;;;;;4952501;29;20075;-65
2023/01/11 11:22:09;;;;;;;11.82;2.08;;;;;;;;;;4948136;28;20035;-65
2023/01/11 11:24:42;;;;;;;14.85;2.45;;;;;;;;;;4950804;28;20133;-65
2023/01/11 11:27:21;;;;;;;20.52;3.05;;;;;;;;;;4956060;28;20427;-65
2023/01/11 11:29:52;;;;;;;26.83;3.53;;;;;;;;;;4955720;28;20495;-65
2023/01/11 11:32:26;;;;;;;14.85;3.08;;;;;;;;;;4936332;29;20055;-65
2023/01/11 11:34:53;;;;;;;21.17;2.97;;;;;;;;;;4959487;28;20060;-65
2023/01/11 11:37:42;;;;;;;19.35;2.90;;;;;;;;;;4952151;29;20138;-65
2023/01/11 11:40:27;;;;;;;18.60;3.05;;;;;;;;;;4955250;28;20511;-65
2023/01/11 11:43:09;;;;;;;15.05;2.00;;;;;;;;;;4952395;29;20053;-65
2023/01/11 11:45:35;;;;;;;23.80;3.38;;;;;;;;;;4952524;28;20043;-65
2023/01/11 11:48:02;;;;;;;18.55;2.97;;;;;;;;;;4952265;29;20563;-65
2023/01/11 11:50:28;;;;;;;12.98;2.67;;;;;;;;;;4952338;28;20043;-65
2023/01/11 11:53:00;;;;;;;16.00;3.42;;;;;;;;;;4949079;28;20051;-65
2023/01/11 11:55:29;;;;;;;22.52;2.78;;;;;;;;;;4957686;28;20134;-65
2023/01/11 11:57:56;;;;;;;19.75;3.10;;;;;;;;;;4967007;28;20094;-65
2023/01/11 12:00:24;;;;;;;17.60;2.53;;;;;;;;;;4951144;29;20055;-65
2023/01/11 12:02:54;;;;;;;23.77;3.20;;;;;;;;;;4953360;28;20054;-65
2023/01/11 12:05:20;;;;;;;20.35;3.05;;;;;;;;;;4958468;28;20058;-65
2023/01/11 12:07:48;;;;;;;21.63;3.53;;;;;;;;;;4955148;28;20043;-65
2023/01/11 12:10:15;;;;;;;17.42;2.38;;;;;;;;;;4936017;29;20075;-65
2023/01/11 12:12:52;;;;;;;15.50;3.40;;;;;;;;;;4953083;29;20039;-65
2023/01/11 12:15:23;;;;;;;18.63;3.80;;;;;;;;;;4951932;29;20047;-64
2023/01/11 12:17:49;;;;;;;20.08;2.50;;;;;;;;;;4952601;28;20055;-64
2023/01/11 12:20:21;;;;;;;19.95;3.28;;;;;;;;;;4954053;28;20130;-64
2023/01/11 12:22:48;;;;;;;13.63;2.78;;;;;;;;;;4951956;29;20047;-65
2023/01/11 12:25:14;;;;;;;16.50;2.88;;;;;;;;;;4952758;28;20059;-65
2023/01/11 12:27:44;;;;;;;15.77;2.90;;;;;;;;;;4949806;28;20054;-65
2023/01/11 12:30:16;;;;;;;16.23;3.03;;;;;;;;;;4951515;28;20141;-64
2023/01/11 12:32:49;;;;;;;15.50;2.50;;;;;;;;;;4952176;29;20083;-65
2023/01/11 12:35:24;;;;;;;24.48;3.50;;;;;;;;;;4938155;29;20153;-64
2023/01/11 12:37:57;;;;;;;23.98;3.78;;;;;;;;;;4917413;29;20098;-65
2023/01/11 12:40:36;;;;;;;28.40;4.80;;;;;;;;;;4936781;28;20082;-64
2023/01/11 12:43:26;;;;;;;17.00;2.55;;;10.60;99.90;;;;;;4953346;28;20043;-64
2023/01/11 12:46:11;;;;;;;20.13;2.90;;;;;;;;;;4923177;29;20047;-64
2023/01/11 12:49:04;;;;;;;13.32;3.20;;;10.80;99.90;;;;;;4955647;29;20102;-64
2023/01/11 12:51:30;;;;;;;21.15;2.80;;;;;;;;;;4951156;29;20062;-64
2023/01/11 12:53:56;;;;;;;23.52;2.92;;;;;;;;;;4953272;28;20138;-64
2023/01/11 12:56:47;;;;;;;16.33;2.05;;;;;;;;;;4954860;29;20173;-64
2023/01/11 12:59:28;;;;;;;27.15;3.88;;;;;;;;;;4955212;29;20077;-64
2023/01/11 13:02:06;;;;;;;22.02;3.05;;;;;;;;;;4955624;28;20114;-64
2023/01/11 13:04:53;;;;;;;20.52;2.88;;;;;;;;;;4954848;29;20051;-64
2023/01/11 13:07:19;;;;;;;16.77;2.95;;;;;;;;;;4953954;29;20055;-64
2023/01/11 13:10:08;;;;;;;17.40;3.20;;;;;;;;;;4954116;29;20047;-64
2023/01/11 13:12:51;;;;;;;19.52;3.05;;;;;;;;;;4947672;28;20059;-64
2023/01/11 13:15:17;;;;;;;15.15;2.25;;;;;;;;;;4954567;28;20492;-64
2023/01/11 13:17:46;;;;;;;20.58;3.17;;;;;;;;;;4953270;29;20046;-64
2023/01/11 13:20:29;;;;;;;18.08;2.92;;;;;;;;;;4952209;28;20106;-64
2023/01/11 13:22:59;;;;;;;20.25;3.40;;;;;;;;;;4950519;28;20048;-64
2023/01/11 13:25:30;;;;;;;21.35;4.05;;;;;;;;;;4952286;28;20128;-64
2023/01/11 13:27:58;;;;;;;22.63;2.72;;;;;;;;;;4951579;28;20142;-64
2023/01/11 13:30:25;;;;;;;24.77;5.07;;;;;;;;;;4950092;28;20039;-64
2023/01/11 13:33:05;;;;;;;15.60;2.60;;;;;;;;;;4963876;28;20047;-64
2023/01/11 13:35:40;;;;;;;20.30;2.95;;;;;;;;;;4951462;28;20039;-64
2023/01/11 13:38:15;;;;;;;21.60;3.50;;;;;;;;;;4949152;28;20134;-64
2023/01/11 13:40:45;;;;;;;16.83;3.40;;;;;;;;;;4948443;28;20093;-64
2023/01/11 13:43:15;;;;;;;24.15;3.13;;;;;;;;;;4949298;28;20051;-64
2023/01/11 13:46:04;;;;;;;15.00;2.67;;;;;;;;;;4950623;28;20051;-64
2023/01/11 13:48:37;;;;;;;24.85;4.03;;;;;;;;;;4963870;28;20334;-64
2023/01/11 13:51:22;;;;;;;23.40;2.97;;;;;;;;;;4953765;28;20138;-63
2023/01/11 13:53:48;;;;;;;15.80;2.83;;;;;;;;;;4953813;28;20508;-63
2023/01/11 13:56:19;;;;;;;23.23;3.17;;;;;;;;;;4949303;28;20504;-64
2023/01/11 13:58:55;;;;;;;24.40;3.60;;;;;;;;;;4942156;28;20066;-63
2023/01/11 14:01:39;;;;;;;23.73;4.00;;;;;;;;;;4950875;28;20098;-64
2023/01/11 14:04:07;;;;;;;23.45;4.20;;;;;;;;;;4951563;28;20050;-63
2023/01/11 14:06:40;;;;;;;21.05;2.83;;;;;;;;;;4952039;28;20051;-63
2023/01/11 14:09:31;;;;;;;23.90;2.90;;;;;;;;;;4946636;28;20054;-63
2023/01/11 14:12:30;;;;;;;33.97;4.88;;;9.60;99.90;;;;;;4949592;28;20047;-63
2023/01/11 14:14:56;;;;;;;16.70;3.40;;;;;;;;;;4967324;28;20055;-63
2023/01/11 14:17:44;;;;;;;14.00;3.10;;;9.80;99.90;;;;;;4955196;28;20043;-63
2023/01/11 14:20:13;;;;;;;17.95;2.40;;;;;;;;;;4952564;28;20051;-64
2023/01/11 14:22:43;;;;;;;14.40;2.83;;;;;;;;;;4947706;28;20043;-64
2023/01/11 14:25:16;;;;;;;16.70;2.75;;;;;;;;;;4937239;28;20690;-64
2023/01/11 14:27:45;;;;;;;34.22;5.25;;;;;;;;;;4939639;28;20055;-63
2023/01/11 14:30:14;;;;;;;18.10;3.58;;;;;;;;;;4956053;28;20050;-63
2023/01/11 14:32:47;;;;;;;25.27;6.28;;;;;;;;;;4973501;28;20051;-63
2023/01/11 14:35:25;;;;;;;29.05;6.53;;;;;;;;;;4967625;28;20133;-63
2023/01/11 14:38:03;;;;;;;23.38;4.15;;;;;;;;;;4968665;28;20054;-63
2023/01/11 14:40:36;;;;;;;23.52;6.07;;;;;;;;;;4968597;28;20059;-63
2023/01/11 14:43:14;;;;;;;12.75;2.95;;;;;;;;;;4949419;28;20043;-63
2023/01/11 14:45:56;;;;;;;21.40;3.28;;;;;;;;;;4961744;28;20578;-63
2023/01/11 14:48:22;;;;;;;27.95;3.70;;;;;;;;;;4938758;28;20098;-63
2023/01/11 14:50:54;;;;;;;17.17;2.38;;;;;;;;;;4954111;28;20492;-63
2023/01/11 14:53:23;;;;;;;21.77;3.40;;;;;;;;;;4951128;28;20479;-63
2023/01/11 14:55:49;;;;;;;24.10;4.65;;;;;;;;;;4936307;29;20099;-63
2023/01/11 14:58:17;;;;;;;20.23;2.85;;;;;;;;;;4956266;28;20060;-64
2023/01/11 15:00:43;;;;;;;16.88;3.22;;;;;;;;;;4951227;29;20058;-62
2023/01/11 15:03:09;;;;;;;28.58;4.53;;;;;;;;;;4963671;28;20038;-63
2023/01/11 15:05:36;;;;;;;26.42;3.22;;;;;;;;;;4940152;29;20460;-63
2023/01/11 15:08:15;;;;;;;23.48;3.15;;;;;;;;;;4933147;29;20047;-63
2023/01/11 15:10:57;;;;;;;12.63;3.95;;;;;;;;;;4935603;29;20138;-63
2023/01/11 15:13:33;;;;;;;32.42;4.00;;;;;;;;;;4958568;28;20050;-63
2023/01/11 15:18:52;;;;;;;23.35;3.08;;;;;;;;;;4952508;28;20501;-63
2023/01/11 15:21:21;;;;;;;20.58;3.47;;;;;;;;;;4971174;28;20047;-62